sensor_id;sensor_type;location;lat;lon;timestamp;P1;durP1;ratioP1;P2;durP2;ratioP2
20505;SDS011;10411;48.148;7.704;2022-10-16T00:00:38;19.30;;;18.20;;
20505;SDS011;10411;48.148;7.704;2022-10-16T00:03:04;19.20;;;17.77;;
20505;SDS011;10411;48.148;7.704;2022-10-16T00:05:30;19.77;;;18.50;;
20505;SDS011;10411;48.148;7.704;2022-10-16T00:07:56;20.30;;;18.90;;
20505;SDS011;10411;48.148;7.704;2022-10-16T00:10:22;19.63;;;18.30;;
20505;SDS011;10411;48.148;7.704;2022-10-16T00:12:48;19.27;;;17.97;;
20505;SDS011;10411;48.148;7.704;2022-10-16T00:15:14;19.50;;;18.30;;
20505;SDS011;10411;48.148;7.704;2022-10-16T00:17:40;18.77;;;17.47;;
20505;SDS011;10411;48.148;7.704;2022-10-16T00:20:07;19.37;;;18.17;;
20505;SDS011;10411;48.148;7.704;2022-10-16T00:22:33;19.10;;;17.73;;
20505;SDS011;10411;48.148;7.704;2022-10-16T00:24:59;19.80;;;18.40;;
20505;SDS011;10411;48.148;7.704;2022-10-16T00:27:25;19.83;;;18.13;;
20505;SDS011;10411;48.148;7.704;2022-10-16T00:29:51;20.13;;;18.60;;
20505;SDS011;10411;48.148;7.704;2022-10-16T00:32:18;19.37;;;18.20;;
20505;SDS011;10411;48.148;7.704;2022-10-16T00:34:44;18.93;;;17.77;;
20505;SDS011;10411;48.148;7.704;2022-10-16T00:37:10;20.40;;;18.90;;
20505;SDS011;10411;48.148;7.704;2022-10-16T00:39:36;19.50;;;18.20;;
20505;SDS011;10411;48.148;7.704;2022-10-16T00:42:02;18.73;;;17.47;;
20505;SDS011;10411;48.148;7.704;2022-10-16T00:47:56;19.70;;;18.20;;
20505;SDS011;10411;48.148;7.704;2022-10-16T00:52:32;20.13;;;18.73;;
20505;SDS011;10411;48.148;7.704;2022-10-16T00:54:58;20.17;;;18.80;;
20505;SDS011;10411;48.148;7.704;2022-10-16T00:57:25;20.77;;;19.20;;
20505;SDS011;10411;48.148;7.704;2022-10-16T00:59:51;20.03;;;18.80;;
20505;SDS011;10411;48.148;7.704;2022-10-16T01:02:17;20.20;;;18.93;;
20505;SDS011;10411;48.148;7.704;2022-10-16T01:04:47;20.07;;;18.73;;
20505;SDS011;10411;48.148;7.704;2022-10-16T01:12:36;20.93;;;19.30;;
20505;SDS011;10411;48.148;7.704;2022-10-16T01:15:26;19.90;;;18.70;;
20505;SDS011;10411;48.148;7.704;2022-10-16T01:23:56;20.43;;;18.77;;
20505;SDS011;10411;48.148;7.704;2022-10-16T01:25:59;19.47;;;18.27;;
20505;SDS011;10411;48.148;7.704;2022-10-16T01:31:14;19.33;;;18.13;;
20505;SDS011;10411;48.148;7.704;2022-10-16T01:33:43;20.53;;;18.57;;
20505;SDS011;10411;48.148;7.704;2022-10-16T01:36:15;19.90;;;18.60;;
20505;SDS011;10411;48.148;7.704;2022-10-16T01:38:43;19.50;;;18.20;;
20505;SDS011;10411;48.148;7.704;2022-10-16T01:41:16;19.60;;;18.40;;
20505;SDS011;10411;48.148;7.704;2022-10-16T01:43:49;18.93;;;17.90;;
20505;SDS011;10411;48.148;7.704;2022-10-16T01:46:16;19.60;;;18.10;;
20505;SDS011;10411;48.148;7.704;2022-10-16T01:48:44;19.40;;;18.30;;
20505;SDS011;10411;48.148;7.704;2022-10-16T01:51:11;19.07;;;18.03;;
20505;SDS011;10411;48.148;7.704;2022-10-16T01:53:38;20.23;;;18.47;;
20505;SDS011;10411;48.148;7.704;2022-10-16T01:56:06;19.77;;;18.50;;
20505;SDS011;10411;48.148;7.704;2022-10-16T01:58:34;19.40;;;18.03;;
20505;SDS011;10411;48.148;7.704;2022-10-16T02:01:01;19.80;;;18.40;;
20505;SDS011;10411;48.148;7.704;2022-10-16T02:03:28;20.20;;;18.90;;
20505;SDS011;10411;48.148;7.704;2022-10-16T02:05:55;20.20;;;18.60;;
20505;SDS011;10411;48.148;7.704;2022-10-16T02:08:22;19.47;;;18.07;;
20505;SDS011;10411;48.148;7.704;2022-10-16T02:10:49;19.03;;;17.70;;
20505;SDS011;10411;48.148;7.704;2022-10-16T02:13:23;19.53;;;18.17;;
20505;SDS011;10411;48.148;7.704;2022-10-16T02:15:51;19.03;;;17.90;;
20505;SDS011;10411;48.148;7.704;2022-10-16T02:18:17;19.33;;;18.13;;
20505;SDS011;10411;48.148;7.704;2022-10-16T02:20:51;19.07;;;17.97;;
20505;SDS011;10411;48.148;7.704;2022-10-16T02:23:29;20.40;;;18.90;;
20505;SDS011;10411;48.148;7.704;2022-10-16T02:26:00;19.70;;;18.43;;
20505;SDS011;10411;48.148;7.704;2022-10-16T02:28:31;19.60;;;18.30;;
20505;SDS011;10411;48.148;7.704;2022-10-16T02:31:00;20.17;;;18.77;;
20505;SDS011;10411;48.148;7.704;2022-10-16T02:33:30;20.13;;;18.93;;
20505;SDS011;10411;48.148;7.704;2022-10-16T02:35:56;20.23;;;18.93;;
20505;SDS011;10411;48.148;7.704;2022-10-16T02:38:23;19.80;;;18.60;;
20505;SDS011;10411;48.148;7.704;2022-10-16T02:40:49;20.17;;;18.60;;
20505;SDS011;10411;48.148;7.704;2022-10-16T02:43:15;20.00;;;18.67;;
20505;SDS011;10411;48.148;7.704;2022-10-16T02:45:41;20.20;;;18.60;;
20505;SDS011;10411;48.148;7.704;2022-10-16T02:48:08;20.50;;;18.60;;
20505;SDS011;10411;48.148;7.704;2022-10-16T02:50:34;20.60;;;19.10;;
20505;SDS011;10411;48.148;7.704;2022-10-16T02:53:00;20.13;;;18.83;;
20505;SDS011;10411;48.148;7.704;2022-10-16T02:55:26;20.57;;;18.97;;
20505;SDS011;10411;48.148;7.704;2022-10-16T02:57:53;20.50;;;19.10;;
20505;SDS011;10411;48.148;7.704;2022-10-16T03:00:19;20.43;;;18.90;;
20505;SDS011;10411;48.148;7.704;2022-10-16T03:02:45;19.60;;;18.43;;
20505;SDS011;10411;48.148;7.704;2022-10-16T03:05:12;19.40;;;18.00;;
20505;SDS011;10411;48.148;7.704;2022-10-16T03:07:38;20.13;;;18.47;;
20505;SDS011;10411;48.148;7.704;2022-10-16T03:10:04;20.30;;;19.00;;
20505;SDS011;10411;48.148;7.704;2022-10-16T03:12:31;19.23;;;17.97;;
20505;SDS011;10411;48.148;7.704;2022-10-16T03:14:57;19.77;;;18.20;;
20505;SDS011;10411;48.148;7.704;2022-10-16T03:17:23;19.70;;;18.30;;
20505;SDS011;10411;48.148;7.704;2022-10-16T03:19:49;20.03;;;18.57;;
20505;SDS011;10411;48.148;7.704;2022-10-16T03:22:15;19.63;;;18.43;;
20505;SDS011;10411;48.148;7.704;2022-10-16T03:24:41;19.77;;;18.57;;
20505;SDS011;10411;48.148;7.704;2022-10-16T03:27:07;19.73;;;18.37;;
20505;SDS011;10411;48.148;7.704;2022-10-16T03:29:33;19.23;;;18.00;;
20505;SDS011;10411;48.148;7.704;2022-10-16T03:31:59;19.37;;;18.17;;
20505;SDS011;10411;48.148;7.704;2022-10-16T03:34:25;19.37;;;18.13;;
20505;SDS011;10411;48.148;7.704;2022-10-16T03:36:51;19.57;;;18.37;;
20505;SDS011;10411;48.148;7.704;2022-10-16T03:39:17;19.20;;;18.00;;
20505;SDS011;10411;48.148;7.704;2022-10-16T03:41:43;19.27;;;17.87;;
20505;SDS011;10411;48.148;7.704;2022-10-16T03:44:11;20.30;;;18.80;;
20505;SDS011;10411;48.148;7.704;2022-10-16T03:46:37;18.77;;;17.60;;
20505;SDS011;10411;48.148;7.704;2022-10-16T03:49:03;19.37;;;18.20;;
20505;SDS011;10411;48.148;7.704;2022-10-16T03:51:29;19.53;;;18.33;;
20505;SDS011;10411;48.148;7.704;2022-10-16T03:53:55;20.07;;;18.57;;
20505;SDS011;10411;48.148;7.704;2022-10-16T03:56:21;19.23;;;17.93;;
20505;SDS011;10411;48.148;7.704;2022-10-16T03:58:47;20.07;;;18.43;;
20505;SDS011;10411;48.148;7.704;2022-10-16T04:01:13;20.20;;;18.40;;
20505;SDS011;10411;48.148;7.704;2022-10-16T04:03:39;20.37;;;18.77;;
20505;SDS011;10411;48.148;7.704;2022-10-16T04:06:04;20.70;;;18.70;;
20505;SDS011;10411;48.148;7.704;2022-10-16T04:08:30;19.77;;;18.10;;
20505;SDS011;10411;48.148;7.704;2022-10-16T04:10:59;19.43;;;18.33;;
20505;SDS011;10411;48.148;7.704;2022-10-16T04:13:26;19.13;;;17.93;;
20505;SDS011;10411;48.148;7.704;2022-10-16T04:15:52;19.30;;;17.97;;
20505;SDS011;10411;48.148;7.704;2022-10-16T04:18:17;19.43;;;18.23;;
20505;SDS011;10411;48.148;7.704;2022-10-16T04:20:43;19.23;;;17.90;;
20505;SDS011;10411;48.148;7.704;2022-10-16T04:23:09;19.70;;;18.30;;
20505;SDS011;10411;48.148;7.704;2022-10-16T04:25:35;19.07;;;17.97;;
20505;SDS011;10411;48.148;7.704;2022-10-16T04:28:01;20.33;;;18.73;;
20505;SDS011;10411;48.148;7.704;2022-10-16T04:30:27;20.10;;;18.30;;
20505;SDS011;10411;48.148;7.704;2022-10-16T04:32:53;19.43;;;18.03;;
20505;SDS011;10411;48.148;7.704;2022-10-16T04:35:20;20.53;;;18.70;;
20505;SDS011;10411;48.148;7.704;2022-10-16T04:37:46;20.00;;;18.60;;
20505;SDS011;10411;48.148;7.704;2022-10-16T04:40:12;19.10;;;17.77;;
20505;SDS011;10411;48.148;7.704;2022-10-16T04:42:39;19.73;;;18.53;;
20505;SDS011;10411;48.148;7.704;2022-10-16T04:45:05;20.20;;;18.60;;
20505;SDS011;10411;48.148;7.704;2022-10-16T04:47:33;19.17;;;17.97;;
20505;SDS011;10411;48.148;7.704;2022-10-16T04:49:59;20.00;;;18.10;;
20505;SDS011;10411;48.148;7.704;2022-10-16T04:52:26;19.70;;;18.40;;
20505;SDS011;10411;48.148;7.704;2022-10-16T04:54:52;19.50;;;18.20;;
20505;SDS011;10411;48.148;7.704;2022-10-16T04:57:19;19.90;;;18.40;;
20505;SDS011;10411;48.148;7.704;2022-10-16T04:59:45;19.73;;;18.30;;
20505;SDS011;10411;48.148;7.704;2022-10-16T05:02:11;19.27;;;18.17;;
20505;SDS011;10411;48.148;7.704;2022-10-16T05:04:36;20.07;;;18.67;;
20505;SDS011;10411;48.148;7.704;2022-10-16T05:07:02;19.20;;;17.93;;
20505;SDS011;10411;48.148;7.704;2022-10-16T05:09:28;19.27;;;18.17;;
20505;SDS011;10411;48.148;7.704;2022-10-16T05:11:54;19.53;;;18.07;;
20505;SDS011;10411;48.148;7.704;2022-10-16T05:14:20;19.63;;;18.30;;
20505;SDS011;10411;48.148;7.704;2022-10-16T05:16:46;19.37;;;18.27;;
20505;SDS011;10411;48.148;7.704;2022-10-16T05:19:13;20.37;;;18.80;;
20505;SDS011;10411;48.148;7.704;2022-10-16T05:21:39;19.73;;;18.23;;
20505;SDS011;10411;48.148;7.704;2022-10-16T05:24:05;20.17;;;18.73;;
20505;SDS011;10411;48.148;7.704;2022-10-16T05:26:31;19.20;;;18.00;;
20505;SDS011;10411;48.148;7.704;2022-10-16T05:28:57;19.63;;;18.10;;
20505;SDS011;10411;48.148;7.704;2022-10-16T05:31:23;20.50;;;18.93;;
20505;SDS011;10411;48.148;7.704;2022-10-16T05:33:49;19.83;;;18.53;;
20505;SDS011;10411;48.148;7.704;2022-10-16T05:36:14;19.30;;;18.20;;
20505;SDS011;10411;48.148;7.704;2022-10-16T05:38:41;20.17;;;18.50;;
20505;SDS011;10411;48.148;7.704;2022-10-16T05:41:07;19.63;;;18.00;;
20505;SDS011;10411;48.148;7.704;2022-10-16T05:43:33;19.10;;;17.90;;
20505;SDS011;10411;48.148;7.704;2022-10-16T05:46:05;20.10;;;18.63;;
20505;SDS011;10411;48.148;7.704;2022-10-16T05:48:31;20.30;;;18.70;;
20505;SDS011;10411;48.148;7.704;2022-10-16T05:50:58;20.00;;;18.60;;
20505;SDS011;10411;48.148;7.704;2022-10-16T05:53:25;20.63;;;18.80;;
20505;SDS011;10411;48.148;7.704;2022-10-16T05:55:51;19.70;;;18.43;;
20505;SDS011;10411;48.148;7.704;2022-10-16T05:58:17;19.33;;;18.00;;
20505;SDS011;10411;48.148;7.704;2022-10-16T06:00:43;20.10;;;18.80;;
20505;SDS011;10411;48.148;7.704;2022-10-16T06:03:09;20.10;;;18.80;;
20505;SDS011;10411;48.148;7.704;2022-10-16T06:05:35;20.13;;;18.63;;
20505;SDS011;10411;48.148;7.704;2022-10-16T06:08:01;23.80;;;21.67;;
20505;SDS011;10411;48.148;7.704;2022-10-16T06:10:27;20.93;;;19.57;;
20505;SDS011;10411;48.148;7.704;2022-10-16T06:12:53;20.53;;;19.23;;
20505;SDS011;10411;48.148;7.704;2022-10-16T06:15:19;20.77;;;19.37;;
20505;SDS011;10411;48.148;7.704;2022-10-16T06:17:45;20.70;;;19.33;;
20505;SDS011;10411;48.148;7.704;2022-10-16T06:20:11;21.93;;;20.50;;
20505;SDS011;10411;48.148;7.704;2022-10-16T06:22:37;21.80;;;20.27;;
20505;SDS011;10411;48.148;7.704;2022-10-16T06:25:03;21.43;;;19.83;;
20505;SDS011;10411;48.148;7.704;2022-10-16T06:27:29;21.83;;;20.20;;
20505;SDS011;10411;48.148;7.704;2022-10-16T06:29:55;22.47;;;20.70;;
20505;SDS011;10411;48.148;7.704;2022-10-16T06:32:22;22.50;;;20.50;;
20505;SDS011;10411;48.148;7.704;2022-10-16T06:34:48;21.67;;;19.93;;
20505;SDS011;10411;48.148;7.704;2022-10-16T06:37:14;21.07;;;19.57;;
20505;SDS011;10411;48.148;7.704;2022-10-16T06:39:40;25.93;;;23.53;;
20505;SDS011;10411;48.148;7.704;2022-10-16T06:42:06;26.63;;;24.17;;
20505;SDS011;10411;48.148;7.704;2022-10-16T06:44:32;27.13;;;24.63;;
20505;SDS011;10411;48.148;7.704;2022-10-16T06:46:58;24.57;;;22.60;;
20505;SDS011;10411;48.148;7.704;2022-10-16T06:49:24;23.53;;;21.43;;
20505;SDS011;10411;48.148;7.704;2022-10-16T06:51:50;22.03;;;20.43;;
20505;SDS011;10411;48.148;7.704;2022-10-16T06:54:16;21.70;;;20.30;;
20505;SDS011;10411;48.148;7.704;2022-10-16T06:56:42;21.50;;;19.90;;
20505;SDS011;10411;48.148;7.704;2022-10-16T06:59:08;21.10;;;19.80;;
20505;SDS011;10411;48.148;7.704;2022-10-16T07:01:34;21.47;;;19.83;;
20505;SDS011;10411;48.148;7.704;2022-10-16T07:04:01;20.97;;;19.43;;
20505;SDS011;10411;48.148;7.704;2022-10-16T07:06:27;21.73;;;19.80;;
20505;SDS011;10411;48.148;7.704;2022-10-16T07:08:56;20.97;;;19.60;;
20505;SDS011;10411;48.148;7.704;2022-10-16T07:11:23;20.00;;;18.80;;
20505;SDS011;10411;48.148;7.704;2022-10-16T07:13:49;20.50;;;18.90;;
20505;SDS011;10411;48.148;7.704;2022-10-16T07:16:19;20.57;;;18.87;;
20505;SDS011;10411;48.148;7.704;2022-10-16T07:18:46;20.13;;;18.93;;
20505;SDS011;10411;48.148;7.704;2022-10-16T07:21:14;23.90;;;21.77;;
20505;SDS011;10411;48.148;7.704;2022-10-16T07:23:41;25.17;;;22.90;;
20505;SDS011;10411;48.148;7.704;2022-10-16T07:26:08;21.80;;;20.13;;
20505;SDS011;10411;48.148;7.704;2022-10-16T07:28:35;21.33;;;19.73;;
20505;SDS011;10411;48.148;7.704;2022-10-16T07:31:02;20.20;;;18.77;;
20505;SDS011;10411;48.148;7.704;2022-10-16T07:33:29;20.47;;;19.10;;
20505;SDS011;10411;48.148;7.704;2022-10-16T07:35:55;20.53;;;19.13;;
20505;SDS011;10411;48.148;7.704;2022-10-16T07:38:21;20.67;;;19.17;;
20505;SDS011;10411;48.148;7.704;2022-10-16T07:40:47;20.60;;;18.97;;
20505;SDS011;10411;48.148;7.704;2022-10-16T07:43:14;20.70;;;19.30;;
20505;SDS011;10411;48.148;7.704;2022-10-16T07:45:47;21.83;;;19.67;;
20505;SDS011;10411;48.148;7.704;2022-10-16T07:48:13;20.77;;;19.13;;
20505;SDS011;10411;48.148;7.704;2022-10-16T07:50:39;20.87;;;18.93;;
20505;SDS011;10411;48.148;7.704;2022-10-16T07:53:06;20.73;;;19.40;;
20505;SDS011;10411;48.148;7.704;2022-10-16T07:55:32;20.33;;;19.10;;
20505;SDS011;10411;48.148;7.704;2022-10-16T07:57:58;20.50;;;18.93;;
20505;SDS011;10411;48.148;7.704;2022-10-16T08:00:24;20.20;;;18.77;;
20505;SDS011;10411;48.148;7.704;2022-10-16T08:02:50;20.43;;;18.80;;
20505;SDS011;10411;48.148;7.704;2022-10-16T08:05:16;20.47;;;18.67;;
20505;SDS011;10411;48.148;7.704;2022-10-16T08:07:42;19.73;;;18.47;;
20505;SDS011;10411;48.148;7.704;2022-10-16T08:10:18;19.63;;;18.43;;
20505;SDS011;10411;48.148;7.704;2022-10-16T08:12:44;19.80;;;18.60;;
20505;SDS011;10411;48.148;7.704;2022-10-16T08:15:10;20.17;;;18.70;;
20505;SDS011;10411;48.148;7.704;2022-10-16T08:17:36;20.03;;;18.73;;
20505;SDS011;10411;48.148;7.704;2022-10-16T08:20:02;20.47;;;18.70;;
20505;SDS011;10411;48.148;7.704;2022-10-16T08:22:28;20.40;;;19.00;;
20505;SDS011;10411;48.148;7.704;2022-10-16T08:24:54;20.90;;;19.30;;
20505;SDS011;10411;48.148;7.704;2022-10-16T08:27:20;20.70;;;19.30;;
20505;SDS011;10411;48.148;7.704;2022-10-16T08:29:48;20.53;;;19.00;;
20505;SDS011;10411;48.148;7.704;2022-10-16T08:32:14;19.47;;;18.27;;
20505;SDS011;10411;48.148;7.704;2022-10-16T08:34:40;21.00;;;19.00;;
20505;SDS011;10411;48.148;7.704;2022-10-16T08:37:06;20.63;;;18.93;;
20505;SDS011;10411;48.148;7.704;2022-10-16T08:39:33;20.13;;;18.90;;
20505;SDS011;10411;48.148;7.704;2022-10-16T08:44:44;20.20;;;18.70;;
20505;SDS011;10411;48.148;7.704;2022-10-16T08:47:23;20.50;;;18.90;;
20505;SDS011;10411;48.148;7.704;2022-10-16T08:50:00;20.47;;;18.87;;
20505;SDS011;10411;48.148;7.704;2022-10-16T08:52:29;19.93;;;18.53;;
20505;SDS011;10411;48.148;7.704;2022-10-16T08:54:56;20.03;;;18.53;;
20505;SDS011;10411;48.148;7.704;2022-10-16T08:57:22;19.80;;;18.40;;
20505;SDS011;10411;48.148;7.704;2022-10-16T08:59:50;19.67;;;18.47;;
20505;SDS011;10411;48.148;7.704;2022-10-16T09:08:09;20.10;;;18.57;;
20505;SDS011;10411;48.148;7.704;2022-10-16T09:15:36;21.43;;;19.13;;
20505;SDS011;10411;48.148;7.704;2022-10-16T09:18:07;21.57;;;19.90;;
20505;SDS011;10411;48.148;7.704;2022-10-16T09:25:34;21.00;;;19.60;;
20505;SDS011;10411;48.148;7.704;2022-10-16T09:28:00;21.23;;;19.80;;
20505;SDS011;10411;48.148;7.704;2022-10-16T09:30:27;20.50;;;19.17;;
20505;SDS011;10411;48.148;7.704;2022-10-16T09:32:54;21.07;;;19.40;;
20505;SDS011;10411;48.148;7.704;2022-10-16T09:35:25;21.80;;;20.07;;
20505;SDS011;10411;48.148;7.704;2022-10-16T09:37:52;20.80;;;19.40;;
20505;SDS011;10411;48.148;7.704;2022-10-16T09:40:24;21.00;;;19.57;;
20505;SDS011;10411;48.148;7.704;2022-10-16T09:42:51;21.27;;;19.60;;
20505;SDS011;10411;48.148;7.704;2022-10-16T09:45:21;21.23;;;19.07;;
20505;SDS011;10411;48.148;7.704;2022-10-16T09:47:48;20.50;;;18.90;;
20505;SDS011;10411;48.148;7.704;2022-10-16T09:50:27;27.97;;;25.37;;
20505;SDS011;10411;48.148;7.704;2022-10-16T09:53:03;24.20;;;22.33;;
20505;SDS011;10411;48.148;7.704;2022-10-16T09:55:29;20.30;;;18.80;;
20505;SDS011;10411;48.148;7.704;2022-10-16T09:57:55;20.23;;;18.63;;
20505;SDS011;10411;48.148;7.704;2022-10-16T10:00:22;20.30;;;18.80;;
20505;SDS011;10411;48.148;7.704;2022-10-16T10:02:48;20.33;;;18.80;;
20505;SDS011;10411;48.148;7.704;2022-10-16T10:05:22;20.50;;;19.10;;
20505;SDS011;10411;48.148;7.704;2022-10-16T10:07:56;20.00;;;18.43;;
20505;SDS011;10411;48.148;7.704;2022-10-16T10:10:23;20.17;;;18.97;;
20505;SDS011;10411;48.148;7.704;2022-10-16T10:12:49;19.70;;;18.50;;
20505;SDS011;10411;48.148;7.704;2022-10-16T10:15:15;19.93;;;18.53;;
20505;SDS011;10411;48.148;7.704;2022-10-16T10:17:50;19.80;;;18.60;;
20505;SDS011;10411;48.148;7.704;2022-10-16T10:22:49;19.73;;;18.53;;
20505;SDS011;10411;48.148;7.704;2022-10-16T10:44:21;20.10;;;18.43;;
20505;SDS011;10411;48.148;7.704;2022-10-16T10:46:51;20.60;;;19.03;;
20505;SDS011;10411;48.148;7.704;2022-10-16T10:57:59;20.20;;;18.90;;
20505;SDS011;10411;48.148;7.704;2022-10-16T11:24:16;18.03;;;16.93;;
20505;SDS011;10411;48.148;7.704;2022-10-16T11:27:03;18.93;;;17.93;;
20505;SDS011;10411;48.148;7.704;2022-10-16T11:29:57;18.60;;;17.60;;
20505;SDS011;10411;48.148;7.704;2022-10-16T11:38:37;19.00;;;17.80;;
20505;SDS011;10411;48.148;7.704;2022-10-16T11:44:39;19.37;;;17.90;;
20505;SDS011;10411;48.148;7.704;2022-10-16T11:55:42;18.77;;;17.27;;
20505;SDS011;10411;48.148;7.704;2022-10-16T11:58:28;19.30;;;17.80;;
20505;SDS011;10411;48.148;7.704;2022-10-16T12:15:30;18.27;;;17.20;;
20505;SDS011;10411;48.148;7.704;2022-10-16T12:18:00;18.63;;;17.53;;
20505;SDS011;10411;48.148;7.704;2022-10-16T12:20:37;18.57;;;17.53;;
20505;SDS011;10411;48.148;7.704;2022-10-16T12:23:19;25.57;;;23.50;;
20505;SDS011;10411;48.148;7.704;2022-10-16T12:34:55;23.90;;;22.00;;
20505;SDS011;10411;48.148;7.704;2022-10-16T12:37:28;24.67;;;22.80;;
20505;SDS011;10411;48.148;7.704;2022-10-16T12:40:12;23.60;;;21.90;;
20505;SDS011;10411;48.148;7.704;2022-10-16T12:42:39;20.10;;;18.90;;
20505;SDS011;10411;48.148;7.704;2022-10-16T12:47:51;20.77;;;19.00;;
20505;SDS011;10411;48.148;7.704;2022-10-16T12:50:37;20.07;;;18.87;;
20505;SDS011;10411;48.148;7.704;2022-10-16T12:53:17;20.70;;;19.30;;
20505;SDS011;10411;48.148;7.704;2022-10-16T13:04:35;19.43;;;18.33;;
20505;SDS011;10411;48.148;7.704;2022-10-16T13:09:40;19.47;;;18.27;;
20505;SDS011;10411;48.148;7.704;2022-10-16T13:12:27;19.03;;;17.93;;
20505;SDS011;10411;48.148;7.704;2022-10-16T13:26:46;19.57;;;18.07;;
20505;SDS011;10411;48.148;7.704;2022-10-16T13:29:31;19.23;;;18.07;;
20505;SDS011;10411;48.148;7.704;2022-10-16T13:34:56;19.83;;;18.40;;
20505;SDS011;10411;48.148;7.704;2022-10-16T13:37:26;19.73;;;18.53;;
20505;SDS011;10411;48.148;7.704;2022-10-16T13:40:04;20.23;;;18.40;;
20505;SDS011;10411;48.148;7.704;2022-10-16T13:42:33;19.57;;;18.30;;
20505;SDS011;10411;48.148;7.704;2022-10-16T13:44:59;19.73;;;18.50;;
20505;SDS011;10411;48.148;7.704;2022-10-16T13:47:26;19.70;;;18.30;;
20505;SDS011;10411;48.148;7.704;2022-10-16T13:50:06;19.43;;;18.17;;
20505;SDS011;10411;48.148;7.704;2022-10-16T13:52:32;19.03;;;17.93;;
20505;SDS011;10411;48.148;7.704;2022-10-16T13:54:58;19.30;;;18.20;;
20505;SDS011;10411;48.148;7.704;2022-10-16T14:00:31;19.27;;;18.00;;
20505;SDS011;10411;48.148;7.704;2022-10-16T14:06:06;20.20;;;18.80;;
20505;SDS011;10411;48.148;7.704;2022-10-16T14:09:39;19.67;;;18.33;;
20505;SDS011;10411;48.148;7.704;2022-10-16T14:11:48;19.90;;;18.17;;
20505;SDS011;10411;48.148;7.704;2022-10-16T14:14:16;19.60;;;18.33;;
20505;SDS011;10411;48.148;7.704;2022-10-16T14:16:42;19.07;;;17.83;;
20505;SDS011;10411;48.148;7.704;2022-10-16T14:19:18;18.90;;;17.70;;
20505;SDS011;10411;48.148;7.704;2022-10-16T14:21:44;18.80;;;17.63;;
20505;SDS011;10411;48.148;7.704;2022-10-16T14:24:19;19.07;;;17.70;;
20505;SDS011;10411;48.148;7.704;2022-10-16T14:26:48;19.40;;;18.20;;
20505;SDS011;10411;48.148;7.704;2022-10-16T14:29:15;20.03;;;18.60;;
20505;SDS011;10411;48.148;7.704;2022-10-16T14:31:43;19.27;;;18.00;;
20505;SDS011;10411;48.148;7.704;2022-10-16T14:34:30;19.70;;;18.50;;
20505;SDS011;10411;48.148;7.704;2022-10-16T14:36:58;19.77;;;18.43;;
20505;SDS011;10411;48.148;7.704;2022-10-16T14:39:25;19.67;;;18.47;;
20505;SDS011;10411;48.148;7.704;2022-10-16T14:41:52;20.50;;;19.20;;
20505;SDS011;10411;48.148;7.704;2022-10-16T14:44:21;20.40;;;18.90;;
20505;SDS011;10411;48.148;7.704;2022-10-16T14:46:48;20.10;;;18.80;;
20505;SDS011;10411;48.148;7.704;2022-10-16T14:49:15;19.97;;;18.67;;
20505;SDS011;10411;48.148;7.704;2022-10-16T14:51:43;19.37;;;18.17;;
20505;SDS011;10411;48.148;7.704;2022-10-16T14:54:11;19.60;;;18.33;;
20505;SDS011;10411;48.148;7.704;2022-10-16T14:56:56;19.23;;;18.13;;
20505;SDS011;10411;48.148;7.704;2022-10-16T14:59:39;19.23;;;18.03;;
20505;SDS011;10411;48.148;7.704;2022-10-16T15:02:16;19.83;;;18.53;;
20505;SDS011;10411;48.148;7.704;2022-10-16T15:04:42;19.70;;;18.23;;
20505;SDS011;10411;48.148;7.704;2022-10-16T15:07:08;19.70;;;18.17;;
20505;SDS011;10411;48.148;7.704;2022-10-16T15:09:34;19.40;;;18.30;;
20505;SDS011;10411;48.148;7.704;2022-10-16T15:12:00;19.77;;;18.67;;
20505;SDS011;10411;48.148;7.704;2022-10-16T15:14:26;19.00;;;17.90;;
20505;SDS011;10411;48.148;7.704;2022-10-16T15:16:52;19.57;;;18.30;;
20505;SDS011;10411;48.148;7.704;2022-10-16T15:19:18;19.77;;;18.63;;
20505;SDS011;10411;48.148;7.704;2022-10-16T15:21:44;19.17;;;18.17;;
20505;SDS011;10411;48.148;7.704;2022-10-16T15:24:11;19.43;;;18.10;;
20505;SDS011;10411;48.148;7.704;2022-10-16T15:26:38;19.03;;;17.80;;
20505;SDS011;10411;48.148;7.704;2022-10-16T15:29:04;18.63;;;17.63;;
20505;SDS011;10411;48.148;7.704;2022-10-16T15:31:30;19.30;;;17.87;;
20505;SDS011;10411;48.148;7.704;2022-10-16T15:33:56;19.97;;;18.67;;
20505;SDS011;10411;48.148;7.704;2022-10-16T15:36:29;19.30;;;18.10;;
20505;SDS011;10411;48.148;7.704;2022-10-16T15:38:56;20.53;;;19.23;;
20505;SDS011;10411;48.148;7.704;2022-10-16T15:41:22;19.10;;;17.87;;
20505;SDS011;10411;48.148;7.704;2022-10-16T15:43:48;19.47;;;18.27;;
20505;SDS011;10411;48.148;7.704;2022-10-16T15:46:15;19.50;;;18.30;;
20505;SDS011;10411;48.148;7.704;2022-10-16T15:48:42;20.17;;;18.73;;
20505;SDS011;10411;48.148;7.704;2022-10-16T15:51:08;18.83;;;17.83;;
20505;SDS011;10411;48.148;7.704;2022-10-16T15:53:35;19.83;;;18.27;;
20505;SDS011;10411;48.148;7.704;2022-10-16T15:56:02;19.47;;;18.30;;
20505;SDS011;10411;48.148;7.704;2022-10-16T15:58:28;19.77;;;18.57;;
20505;SDS011;10411;48.148;7.704;2022-10-16T16:00:58;19.30;;;17.87;;
20505;SDS011;10411;48.148;7.704;2022-10-16T16:03:26;20.07;;;18.77;;
20505;SDS011;10411;48.148;7.704;2022-10-16T16:05:52;20.20;;;18.90;;
20505;SDS011;10411;48.148;7.704;2022-10-16T16:08:18;20.17;;;18.77;;
20505;SDS011;10411;48.148;7.704;2022-10-16T16:10:44;20.40;;;19.10;;
20505;SDS011;10411;48.148;7.704;2022-10-16T16:13:11;20.03;;;18.87;;
20505;SDS011;10411;48.148;7.704;2022-10-16T16:15:40;20.47;;;19.27;;
20505;SDS011;10411;48.148;7.704;2022-10-16T16:18:06;19.73;;;18.53;;
20505;SDS011;10411;48.148;7.704;2022-10-16T16:20:34;19.50;;;18.40;;
20505;SDS011;10411;48.148;7.704;2022-10-16T16:23:00;19.97;;;18.63;;
20505;SDS011;10411;48.148;7.704;2022-10-16T16:25:26;20.70;;;19.10;;
20505;SDS011;10411;48.148;7.704;2022-10-16T16:27:52;20.10;;;18.60;;
20505;SDS011;10411;48.148;7.704;2022-10-16T16:30:18;20.20;;;18.90;;
20505;SDS011;10411;48.148;7.704;2022-10-16T16:32:45;20.53;;;18.90;;
20505;SDS011;10411;48.148;7.704;2022-10-16T16:35:11;21.27;;;19.40;;
20505;SDS011;10411;48.148;7.704;2022-10-16T16:37:37;20.10;;;18.87;;
20505;SDS011;10411;48.148;7.704;2022-10-16T16:40:03;20.90;;;19.20;;
20505;SDS011;10411;48.148;7.704;2022-10-16T16:42:29;20.83;;;19.43;;
20505;SDS011;10411;48.148;7.704;2022-10-16T16:44:55;21.40;;;19.63;;
20505;SDS011;10411;48.148;7.704;2022-10-16T16:47:21;21.67;;;20.00;;
20505;SDS011;10411;48.148;7.704;2022-10-16T16:49:47;20.47;;;18.93;;
20505;SDS011;10411;48.148;7.704;2022-10-16T16:52:13;20.53;;;19.13;;
20505;SDS011;10411;48.148;7.704;2022-10-16T16:54:39;19.27;;;17.97;;
20505;SDS011;10411;48.148;7.704;2022-10-16T16:57:05;19.30;;;18.00;;
20505;SDS011;10411;48.148;7.704;2022-10-16T16:59:31;20.57;;;18.57;;
20505;SDS011;10411;48.148;7.704;2022-10-16T17:01:59;19.40;;;18.00;;
20505;SDS011;10411;48.148;7.704;2022-10-16T17:04:25;20.33;;;19.03;;
20505;SDS011;10411;48.148;7.704;2022-10-16T17:06:55;21.63;;;19.90;;
20505;SDS011;10411;48.148;7.704;2022-10-16T17:09:21;18.83;;;17.73;;
20505;SDS011;10411;48.148;7.704;2022-10-16T17:11:47;20.33;;;18.93;;
20505;SDS011;10411;48.148;7.704;2022-10-16T17:14:13;21.50;;;19.70;;